Accueil
METAR-TAF:

METAR-TAF

Aéroports :

Aéroport de Burgos

Burgos, Espagne

latitude: 42-22N, longitude: 003-38W, altitude: 894 m

Observation

Le bulletin a été fait il y a 30 minutes, à 13:30 UTC
Vent 14 kt de nord-est, variant entre nord et est
Température 25°C
Humidité 17%
Pression 1024 hPa
Visibilité 10 km ou plus
pas de nuages en-dessous de 1500 mètres et pas de cumulonimbus.

METAR: LEBG 221330Z 05014KT 350V080 CAVOK 25/M02 Q1024

Heure: 16:00 (14:00 UTC)

Prévision

Le bulletin a été fait il y a 3 heures et 0 minutes, à 11:00 UTC
Prévision valable du 22 à 12 UTC au 22 à 21 UTC
Vent 12 kt de nord-est
Visibilité 10 km ou plus
pas de nuages en-dessous de 1500 mètres et pas de cumulonimbus.
Probabilité 40% :
Temporairement
du 22 à 12 UTC au 22 à 19 UTC
Vent 15 kt de nord-est avec des rafales jusqu'à 25 kt

TAF: LEBG 221100Z 2212/2221 05012KT CAVOK PROB40 TEMPO 2212/2219 05015G25KT

Observations et prévisions météorologiques de plus de 4000 aéroports (messages METAR et TAF).

Les stations disponibles sont représentées par des disques jaunes et rouges sur la carte.

Passer la souris dessus pour voir le nom de la station.

Cliquer dessus pour voir les observations et prévisions météorologiques.

Pour changer de carte: cliquez sur les boutons verts avec une croix noire pour zoomer, sur le bouton vert avec un tiret pour effectuer un zoom arrière, ou sur les flèches vertes pour les cartes adjacentes.


METAR-TAF: